Time;durP1;ratioP1;P1;durP2;ratioP2;P2;SDS_P1;SDS_P2;PMS_P1;PMS_P2;Temp;Humidity;BMP_temperature;BMP_pressure;BME280_temperature;BME280_humidity;BME280_pressure;Samples;Min_cycle;Max_cycle;Signal;HPM_P1;HPM_P2
2021/10/04 00:02:14;;;;;;;3.50;1.00;;;;;;;;;;5034368;28;20041;-61
2021/10/04 00:04:40;;;;;;;2.83;0.90;;;;;;;;;;5023065;28;20034;-57
2021/10/04 00:07:07;;;;;;;5.53;1.20;;;;;;;;;;5020498;28;20062;-60
2021/10/04 00:09:35;;;;;;;2.53;0.90;;;;;;;;;;5020181;28;20034;-63
2021/10/04 00:12:02;;;;;;;2.70;0.82;;;;;;;;;;5032804;28;20041;-60
2021/10/04 00:14:28;;;;;;;6.80;0.95;;;;;;;;;;5022465;28;20057;-58
2021/10/04 00:16:55;;;;;;;3.40;1.10;;;;;;;;;;5024323;28;20065;-59
2021/10/04 00:19:24;;;;;;;4.32;1.38;;;;;;;;;;5021520;28;20073;-63
2021/10/04 00:21:50;;;;;;;1.83;0.95;;;;;;;;;;5022873;28;20042;-62
2021/10/04 00:24:17;;;;;;;4.05;0.90;;;;;;;;;;5023876;28;20050;-60
2021/10/04 00:26:45;;;;;;;2.92;1.00;;;;;;;;;;5026599;28;20119;-63
2021/10/04 00:29:12;;;;;;;6.63;0.80;;;;;;;;;;5034960;28;20097;-59
2021/10/04 00:31:43;;;;;;;3.90;0.77;;;;;;;;;;5046629;28;20078;-60
2021/10/04 00:34:10;;;;;;;;;;;;;;;;;;5030632;28;20458;-62
2021/10/04 00:36:36;;;;;;;3.72;0.90;;;;;;;;;;5024591;28;19929;-61
2021/10/04 00:39:03;;;;;;;2.83;0.80;;;;;;;;;;5023403;28;20038;-61
2021/10/04 00:41:36;;;;;;;6.45;1.23;;;;;;;;;;5027503;28;20116;-58
2021/10/04 00:44:04;;;;;;;3.30;1.02;;;;;;;;;;5030085;28;20073;-59
2021/10/04 00:46:31;;;;;;;5.07;1.00;;;;;;;;;;5046884;28;20115;-59
2021/10/04 00:48:57;;;;;;;2.45;1.40;;;;;;;;;;5040876;28;20138;-59
2021/10/04 00:51:31;;;;;;;2.70;1.05;;;;;;;;;;5044529;28;20041;-61
2021/10/04 00:53:57;;;;;;;1.80;0.70;;;;;;;;;;5038855;28;20482;-57
2021/10/04 00:56:24;;;;;;;5.75;0.77;;;;;;;;;;5025381;28;20046;-62
2021/10/04 00:58:51;;;;;;;1.35;0.73;;;;;;;;;;5023223;28;20057;-58
2021/10/04 01:01:28;;;;;;;4.18;0.82;;;;;;;;;;5023924;28;20042;-59
2021/10/04 01:03:55;;;;;;;4.80;1.10;;;;;;;;;;5024494;28;20061;-61
2021/10/04 01:06:22;;;;;;;2.50;0.90;;;;;;;;;;5041525;28;20052;-60
2021/10/04 01:08:48;;;;;;;3.13;0.90;;;;;;;;;;5044589;28;20066;-62
2021/10/04 01:11:15;;;;;;;3.00;1.17;;;;;;;;;;5032199;28;20083;-61
2021/10/04 01:13:42;;;;;;;3.47;1.00;;;;;;;;;;5042286;28;20052;-59
2021/10/04 01:16:08;;;;;;;2.60;0.82;;;;;;;;;;5025950;28;20057;-60
2021/10/04 01:18:36;;;;;;;3.28;0.90;;;;;;;;;;5023820;28;20030;-61
2021/10/04 01:21:05;;;;;;;1.43;0.77;;;;;;;;;;5022600;28;20045;-61
2021/10/04 01:23:32;;;;;;;3.47;1.20;;;;;;;;;;5027211;28;20033;-59
2021/10/04 01:25:58;;;;;;;4.35;1.42;;;;;;;;;;5022998;28;20038;-60
2021/10/04 01:28:26;;;;;;;3.97;1.50;;;;;;;;;;5025662;28;20037;-59
2021/10/04 01:31:03;;;;;;;3.00;1.63;;;;;;;;;;5039315;28;20092;-60
2021/10/04 01:33:30;;;;;;;5.25;2.40;;;;;;;;;;5025740;28;20046;-61
2021/10/04 01:35:57;;;;;;;7.38;2.33;;;;;;;;;;5025898;28;20033;-60
2021/10/04 01:38:25;;;;;;;6.32;2.85;;;;;;;;;;5024609;28;20102;-61
2021/10/04 01:40:53;;;;;;;7.30;3.20;;;;;;;;;;5023753;28;20175;-61
2021/10/04 01:43:20;;;;;;;6.97;3.10;;;;;;;;;;5039295;28;20041;-61
2021/10/04 01:45:46;;;;;;;5.32;2.70;;;;;;;;;;5043036;28;20034;-61
2021/10/04 01:48:13;;;;;;;5.20;2.40;;;;;;;;;;5045705;28;20045;-61
2021/10/04 01:50:49;;;;;;;7.45;2.85;;;;;;;;;;5044595;28;20038;-62
2021/10/04 01:53:16;;;;;;;5.88;2.92;;;;;;;;;;5023580;28;20111;-60
2021/10/04 01:55:44;;;;;;;8.82;3.35;;;;;;;;;;5024477;28;20026;-61
2021/10/04 01:58:10;;;;;;;7.40;3.20;;;;;;;;;;5041672;28;20029;-59
2021/10/04 02:00:40;;;;;;;6.13;2.47;;;;;;;;;;5045556;28;20290;-58
2021/10/04 02:03:07;;;;;;;6.38;2.30;;;;;;;;;;5043380;28;20044;-60
2021/10/04 02:05:34;;;;;;;11.55;3.35;;;;;;;;;;5046307;28;20053;-60
2021/10/04 02:08:01;;;;;;;7.53;3.30;;;;;;;;;;5028851;28;20112;-60
2021/10/04 02:10:31;;;;;;;7.25;2.65;;;;;;;;;;5026518;28;20127;-60
2021/10/04 02:13:00;;;;;;;5.75;2.90;;;;;;;;;;5031310;28;20026;-62
2021/10/04 02:15:27;;;;;;;5.47;2.17;;;;;;;;;;5044737;28;20048;-59
2021/10/04 02:17:54;;;;;;;4.65;2.25;;;;;;;;;;5032846;28;20301;-60
2021/10/04 02:20:23;;;;;;;6.55;2.50;;;;;;;;;;5024308;28;20045;-61
2021/10/04 02:22:49;;;;;;;4.28;2.22;;;;;;;;;;5025786;28;20052;-58
2021/10/04 02:25:16;;;;;;;5.88;2.58;;;;;;;;;;5044039;28;20123;-61
2021/10/04 02:27:43;;;;;;;8.40;2.92;;;;;;;;;;5038259;28;20042;-59
2021/10/04 02:30:15;;;;;;;9.23;2.58;;;;;;;;;;5025184;28;20037;-62
2021/10/04 02:32:42;;;;;;;6.78;2.88;;;;;;;;;;5022722;28;20126;-58
2021/10/04 02:35:09;;;;;;;7.15;2.75;;;;;;;;;;5026033;28;20109;-61
2021/10/04 02:37:35;;;;;;;9.40;2.92;;;;;;;;;;5040364;28;20033;-59
2021/10/04 02:40:03;;;;;;;5.50;2.53;;;;;;;;;;5042085;28;20052;-58
2021/10/04 02:42:29;;;;;;;6.95;2.90;;;;;;;;;;5029348;28;20045;-62
2021/10/04 02:44:56;;;;;;;5.50;2.67;;;;;;;;;;5002137;28;20124;-60
2021/10/04 02:47:24;;;;;;;6.47;2.65;;;;;;;;;;5023956;28;20111;-61
2021/10/04 02:50:04;;;;;;;8.82;2.38;;;;;;;;;;5021666;28;20034;-61
2021/10/04 02:52:30;;;;;;;5.28;1.50;;;;;;;;;;5021405;28;20049;-60
2021/10/04 02:54:57;;;;;;;3.75;1.90;;;;;;;;;;5013225;28;20057;-60
2021/10/04 02:57:23;;;;;;;5.25;2.35;;;;;;;;;;5025352;28;20041;-58
2021/10/04 02:59:53;;;;;;;4.95;2.00;;;;;;;;;;5008780;28;20053;-60
2021/10/04 03:02:19;;;;;;;2.22;1.20;;;;;;;;;;5004697;28;20162;-58
2021/10/04 03:04:47;;;;;;;4.28;0.93;;;;;;;;;;5008637;28;20026;-58
2021/10/04 03:07:14;;;;;;;2.60;0.77;;;;;;;;;;5022875;28;20057;-59
2021/10/04 03:09:41;;;;;;;4.90;1.17;;;;;;;;;;5015015;28;20038;-58
2021/10/04 03:12:08;;;;;;;3.80;0.98;;;;;;;;;;5004008;28;20082;-57
2021/10/04 03:14:35;;;;;;;2.78;1.02;;;;;;;;;;5006060;28;20041;-58
2021/10/04 03:17:01;;;;;;;4.97;0.98;;;;;;;;;;5024378;28;20038;-58
2021/10/04 03:19:42;;;;;;;3.05;1.00;;;;;;;;;;5015040;28;20138;-58
2021/10/04 03:22:10;;;;;;;1.83;0.63;;;;;;;;;;5017900;28;20045;-58
2021/10/04 03:24:36;;;;;;;2.53;0.93;;;;;;;;;;5037974;28;20100;-59
2021/10/04 03:27:03;;;;;;;4.22;0.80;;;;;;;;;;5030745;28;20045;-62
2021/10/04 03:29:29;;;;;;;5.90;0.90;;;;;;;;;;5002257;28;20042;-62
2021/10/04 03:31:56;;;;;;;1.63;0.80;;;;;;;;;;5019995;28;20048;-62
2021/10/04 03:34:23;;;;;;;1.60;0.60;;;;;;;;;;5024454;28;20119;-62
2021/10/04 03:36:50;;;;;;;5.18;1.08;;;;;;;;;;5003905;28;20128;-62
2021/10/04 03:39:18;;;;;;;3.85;1.00;;;;;;;;;;4987329;28;20038;-59
2021/10/04 03:41:45;;;;;;;3.92;1.00;;;;;;;;;;5004190;28;20097;-61
2021/10/04 03:44:11;;;;;;;3.15;0.90;;;;;;;;;;5004830;28;20050;-61
2021/10/04 03:46:38;;;;;;;5.05;1.23;;;;;;;;;;5011916;28;20038;-61
2021/10/04 03:49:04;;;;;;;3.30;1.63;;;;;;;;;;5019731;28;20033;-62
2021/10/04 03:51:33;;;;;;;3.08;1.20;;;;;;;;;;5019481;28;20042;-61
2021/10/04 03:53:59;;;;;;;;;;;;;;;;;;5023443;28;20049;-62
2021/10/04 03:56:27;;;;;;;6.60;1.73;;;;;;;;;;5036223;28;19928;-61
2021/10/04 03:58:54;;;;;;;6.10;1.70;;;;;;;;;;5026270;28;20140;-59
2021/10/04 04:01:28;;;;;;;7.78;2.10;;;;;;;;;;5017514;28;20291;-61
2021/10/04 04:03:54;;;;;;;5.60;1.58;;;;;;;;;;5031944;28;20021;-62
2021/10/04 04:06:21;;;;;;;6.18;2.22;;;;;;;;;;5043216;28;20037;-62
2021/10/04 04:08:51;;;;;;;6.60;1.90;;;;;;;;;;5033133;28;20041;-59
2021/10/04 04:11:19;;;;;;;5.75;1.90;;;;;;;;;;5009586;28;20050;-58
2021/10/04 04:13:47;;;;;;;4.90;1.58;;;;;;;;;;5005743;28;20124;-61
2021/10/04 04:16:14;;;;;;;5.27;1.97;;;;;;;;;;5005302;28;20058;-62
2021/10/04 04:18:40;;;;;;;5.07;1.65;;;;;;;;;;5032836;28;20290;-61
2021/10/04 04:21:07;;;;;;;2.17;1.30;;;;;;;;;;5028013;28;20056;-58
2021/10/04 04:23:34;;;;;;;3.72;1.50;;;;;;;;;;5021124;28;20112;-62
2021/10/04 04:26:00;;;;;;;4.93;1.60;;;;;;;;;;5018450;28;20047;-62
2021/10/04 04:28:27;;;;;;;3.90;1.58;;;;;;;;;;5008270;28;20128;-63
2021/10/04 04:30:55;;;;;;;3.67;1.85;;;;;;;;;;5002762;28;20044;-60
2021/10/04 04:33:24;;;;;;;6.95;2.30;;;;;;;;;;5002660;28;20034;-61
2021/10/04 04:35:50;;;;;;;5.78;2.53;;;;;;;;;;5007242;28;20038;-62
2021/10/04 04:38:17;;;;;;;9.25;2.75;;;;;;;;;;5019139;28;20045;-61
2021/10/04 04:40:43;;;;;;;5.80;2.47;;;;;;;;;;5040422;28;20052;-60
2021/10/04 04:43:10;;;;;;;3.92;1.92;;;;;;;;;;5003722;28;20041;-59
2021/10/04 04:45:37;;;;;;;5.32;1.70;;;;;;;;;;5004541;28;20038;-60
2021/10/04 04:48:05;;;;;;;2.55;1.05;;;;;;;;;;5005258;28;20038;-62
2021/10/04 04:50:32;;;;;;;2.70;1.10;;;;;;;;;;5028276;28;20033;-62
2021/10/04 04:52:59;;;;;;;6.43;1.30;;;;;;;;;;5024439;28;20045;-62
2021/10/04 04:55:26;;;;;;;2.28;0.98;;;;;;;;;;5024521;28;20052;-62
2021/10/04 04:57:52;;;;;;;5.63;0.90;;;;;;;;;;5025960;28;20436;-61
2021/10/04 05:00:22;;;;;;;7.00;0.98;;;;;;;;;;5004241;28;20066;-59
2021/10/04 05:02:48;;;;;;;5.45;1.05;;;;;;;;;;5015337;28;20116;-59
2021/10/04 05:05:18;;;;;;;6.30;1.20;;;;;;;;;;5038621;28;20044;-58
2021/10/04 05:07:44;;;;;;;5.57;1.40;;;;;;;;;;5024857;28;20041;-59
2021/10/04 05:10:18;;;;;;;7.10;3.08;;;;;;;;;;5030109;28;20119;-58
2021/10/04 05:12:44;;;;;;;8.07;1.40;;;;;;;;;;5043100;28;20052;-60
2021/10/04 05:15:11;;;;;;;7.65;1.90;;;;;;;;;;5028245;28;20037;-58
2021/10/04 05:17:38;;;;;;;7.68;2.03;;;;;;;;;;5025491;28;20062;-60
2021/10/04 05:20:24;;;;;;;6.82;1.80;;;;;;;;;;5028199;28;20045;-59
2021/10/04 05:22:51;;;;;;;9.07;1.55;;;;;;;;;;5035148;28;20040;-59
2021/10/04 05:25:17;;;;;;;3.58;1.35;;;;;;;;;;5029220;28;20045;-58
2021/10/04 05:27:44;;;;;;;5.35;1.20;;;;;;;;;;5033364;28;20165;-60
2021/10/04 05:30:13;;;;;;;3.05;1.00;;;;;;;;;;5034286;28;20556;-59
2021/10/04 05:32:39;;;;;;;6.45;1.23;;;;;;;;;;5038103;28;20133;-60
2021/10/04 05:35:06;;;;;;;2.85;1.30;;;;;;;;;;5026721;28;20050;-59
2021/10/04 05:37:34;;;;;;;5.18;1.20;;;;;;;;;;5016721;28;20038;-56
2021/10/04 05:40:01;;;;;;;6.32;1.30;;;;;;;;;;5015185;28;20077;-57
2021/10/04 05:42:32;;;;;;;3.17;1.20;;;;;;;;;;5008783;28;20123;-59
2021/10/04 05:44:58;;;;;;;5.18;1.17;;;;;;;;;;5014044;28;20056;-58
2021/10/04 05:47:25;;;;;;;11.68;3.92;;;;;;;;;;5013560;28;20130;-58
2021/10/04 05:49:56;;;;;;;3.90;1.40;;;;;;;;;;5019794;28;20049;-59
2021/10/04 05:52:22;;;;;;;1.85;0.70;;;;;;;;;;5023240;28;20049;-59
2021/10/04 05:54:50;;;;;;;1.63;0.90;;;;;;;;;;5026746;28;20114;-58
2021/10/04 05:57:16;;;;;;;3.73;0.97;;;;;;;;;;5032703;28;20048;-59
2021/10/04 05:59:49;;;;;;;3.53;0.80;;;;;;;;;;5037912;28;20095;-58
2021/10/04 06:02:16;;;;;;;2.13;0.90;;;;;;;;;;5026506;28;20068;-59
2021/10/04 06:04:42;;;;;;;4.32;1.58;;;;;;;;;;5040429;28;20057;-60
2021/10/04 06:07:09;;;;;;;5.43;1.92;;;;;;;;;;5034246;28;20052;-57
2021/10/04 06:09:42;;;;;;;3.97;1.27;;;;;;;;;;5044354;28;20041;-57
2021/10/04 06:12:10;;;;;;;3.53;1.10;;;;;;;;;;5027417;28;20049;-57
2021/10/04 06:14:37;;;;;;;3.15;1.15;;;;;;;;;;5023833;28;20179;-60
2021/10/04 06:17:03;;;;;;;3.58;0.98;;;;;;;;;;5027427;28;20107;-60
2021/10/04 06:19:36;;;;;;;2.85;0.80;;;;;;;;;;5043625;28;20033;-59
2021/10/04 06:22:03;;;;;;;2.10;0.90;;;;;;;;;;5041885;28;20114;-59
2021/10/04 06:24:29;;;;;;;3.40;1.00;;;;;;;;;;5045819;28;20048;-59
2021/10/04 06:26:56;;;;;;;4.10;0.82;;;;;;;;;;5037959;28;20069;-60
2021/10/04 06:29:24;;;;;;;4.80;1.05;;;;;;;;;;5023496;28;20041;-58
2021/10/04 06:31:50;;;;;;;5.53;1.00;;;;;;;;;;5023405;28;20095;-59
2021/10/04 06:34:17;;;;;;;1.95;1.00;;;;;;;;;;5025169;28;20062;-59
2021/10/04 06:36:43;;;;;;;5.57;1.20;;;;;;;;;;5025916;28;20045;-58
2021/10/04 06:39:10;;;;;;;3.05;1.13;;;;;;;;;;5022559;28;20070;-58
2021/10/04 06:41:40;;;;;;;8.43;1.65;;;;;;;;;;5031435;28;20052;-62
2021/10/04 06:44:07;;;;;;;3.08;1.10;;;;;;;;;;5021433;28;20115;-61
2021/10/04 06:46:35;;;;;;;2.80;1.15;;;;;;;;;;5021811;28;20037;-60
2021/10/04 06:49:01;;;;;;;4.20;1.40;;;;;;;;;;5021146;28;20038;-61
2021/10/04 06:51:28;;;;;;;3.72;1.48;;;;;;;;;;5023393;28;20033;-62
2021/10/04 06:53:55;;;;;;;3.80;1.20;;;;;;;;;;5028112;28;20045;-60
2021/10/04 06:56:21;;;;;;;4.65;1.70;;;;;;;;;;5044191;28;20037;-61
2021/10/04 06:58:48;;;;;;;4.63;1.75;;;;;;;;;;5029288;28;20103;-58
2021/10/04 07:01:15;;;;;;;4.35;1.50;;;;;;;;;;5022843;28;20062;-58
2021/10/04 07:03:43;;;;;;;8.70;1.58;;;;;;;;;;5018845;28;20096;-59
2021/10/04 07:06:10;;;;;;;6.47;2.00;;;;;;;;;;5024880;28;20049;-60
2021/10/04 07:08:36;;;;;;;4.13;1.60;;;;;;;;;;5019371;28;20110;-62
2021/10/04 07:11:09;;;;;;;4.88;1.42;;;;;;;;;;5041356;28;20096;-60
2021/10/04 07:13:36;;;;;;;3.70;1.42;;;;;;;;;;5040993;28;20037;-59
2021/10/04 07:16:02;;;;;;;6.90;1.80;;;;;;;;;;5042649;28;20062;-59
2021/10/04 07:18:29;;;;;;;9.18;1.95;;;;;;;;;;5043588;28;20033;-59
2021/10/04 07:20:57;;;;;;;6.18;1.88;;;;;;;;;;5040171;28;20045;-61
2021/10/04 07:23:24;;;;;;;3.13;1.75;;;;;;;;;;5043013;28;20069;-61
2021/10/04 07:25:50;;;;;;;9.75;2.30;;;;;;;;;;5039603;28;20041;-60
2021/10/04 07:28:17;;;;;;;10.95;2.30;;;;;;;;;;5042844;28;20033;-59
2021/10/04 07:30:44;;;;;;;6.05;2.13;;;;;;;;;;5020202;28;20128;-62
2021/10/04 07:33:11;;;;;;;8.25;1.85;;;;;;;;;;5006400;28;20124;-60
2021/10/04 07:35:37;;;;;;;7.45;2.50;;;;;;;;;;5015814;28;20065;-59
2021/10/04 07:38:05;;;;;;;9.25;2.28;;;;;;;;;;5028096;28;20123;-59
2021/10/04 07:40:32;;;;;;;8.43;1.63;;;;;;;;;;5030325;28;20072;-62
2021/10/04 07:42:58;;;;;;;4.35;1.75;;;;;;;;;;5039116;28;20057;-60
2021/10/04 07:45:25;;;;;;;7.03;1.40;;;;;;;;;;5042586;28;20045;-62
2021/10/04 07:47:51;;;;;;;3.83;1.17;;;;;;;;;;5045955;28;20056;-61
2021/10/04 07:50:18;;;;;;;10.10;1.83;;;;;;;;;;5039611;28;20053;-61
2021/10/04 07:52:45;;;;;;;8.20;2.85;;;;;;;;;;5018713;28;20037;-59
2021/10/04 07:55:13;;;;;;;7.10;2.03;;;;;;;;;;5022525;28;20131;-60
2021/10/04 07:57:40;;;;;;;6.47;1.70;;;;;;;;;;5045644;28;20147;-59
2021/10/04 08:00:07;;;;;;;5.40;1.95;;;;;;;;;;5045033;28;20335;-62
2021/10/04 08:02:36;;;;;;;7.38;2.20;;;;;;;;;;5029933;28;20053;-59
2021/10/04 08:05:02;;;;;;;6.93;1.90;;;;;;;;;;5023400;28;20044;-59
2021/10/04 08:07:29;;;;;;;4.65;1.58;;;;;;;;;;5002520;28;20065;-59
2021/10/04 08:10:01;;;;;;;10.85;2.00;;;;;;;;;;5004851;28;20049;-61
2021/10/04 08:12:29;;;;;;;4.03;1.65;;;;;;;;;;5002366;28;20054;-59
2021/10/04 08:14:58;;;;;;;5.93;1.70;;;;;;;;;;5005632;28;20054;-60
2021/10/04 08:17:25;;;;;;;4.47;1.88;;;;;;;;;;5003361;28;20035;-62
2021/10/04 08:19:52;;;;;;;7.05;1.42;;;;;;;;;;5007366;28;20053;-59
2021/10/04 08:22:19;;;;;;;5.57;1.95;;;;;;;;;;5013622;28;20033;-60
2021/10/04 08:24:45;;;;;;;3.20;1.30;;;;;;;;;;5023625;28;20037;-60
2021/10/04 08:27:12;;;;;;;3.42;1.13;;;;;;;;;;5023456;28;20047;-60
2021/10/04 08:29:40;;;;;;;2.78;1.20;;;;;;;;;;5016960;28;20041;-59
2021/10/04 08:32:07;;;;;;;9.77;1.20;;;;;;;;;;5017130;28;20082;-62
2021/10/04 08:34:34;;;;;;;4.00;1.10;;;;;;;;;;5005754;28;20050;-61
2021/10/04 08:37:00;;;;;;;4.75;1.00;;;;;;;;;;4993420;28;20038;-59
2021/10/04 08:39:27;;;;;;;4.20;1.30;;;;;;;;;;5031694;28;20118;-59
2021/10/04 08:41:54;;;;;;;7.22;1.27;;;;;;;;;;5039979;28;20095;-60
2021/10/04 08:44:21;;;;;;;4.50;1.40;;;;;;;;;;5010421;28;20048;-58
2021/10/04 08:46:49;;;;;;;9.30;1.50;;;;;;;;;;5004280;28;20038;-58
2021/10/04 08:49:17;;;;;;;3.60;1.20;;;;;;;;;;5018668;28;20119;-59
2021/10/04 08:51:44;;;;;;;4.15;0.93;;;;;;;;;;5023862;28;20037;-62
2021/10/04 08:54:11;;;;;;;2.50;0.98;;;;;;;;;;5020330;28;20038;-59
2021/10/04 08:56:38;;;;;;;6.63;1.00;;;;;;;;;;5024052;28;20041;-60
2021/10/04 08:59:04;;;;;;;6.63;1.30;;;;;;;;;;5019486;28;20053;-61
2021/10/04 09:01:31;;;;;;;4.82;0.95;;;;;;;;;;5022669;28;20045;-62
2021/10/04 09:04:00;;;;;;;3.72;1.05;;;;;;;;;;5020682;28;20127;-60
2021/10/04 09:06:27;;;;;;;3.33;1.10;;;;;;;;;;5023501;28;20038;-62
2021/10/04 09:08:55;;;;;;;3.47;1.05;;;;;;;;;;5017138;28;20052;-60
2021/10/04 09:11:37;;;;;;;7.22;1.27;;;;;;;;;;5016366;28;20045;-58
2021/10/04 09:14:09;;;;;;;3.80;0.98;;;;;;;;;;5020165;28;20042;-59
2021/10/04 09:16:52;;;;;;;3.33;0.90;;;;;;;;;;5043767;28;20431;-59
2021/10/04 09:19:22;;;;;;;9.13;1.20;;;;;;;;;;5038657;28;20055;-61
2021/10/04 09:22:01;;;;;;;5.38;1.08;;;;;;;;;;5044684;28;20483;-62
2021/10/04 09:24:28;;;;;;;4.60;1.00;;;;;;;;;;5034271;28;20062;-60
2021/10/04 09:26:54;;;;;;;8.02;1.13;;;;;;;;;;5026084;28;20041;-61
2021/10/04 09:29:21;;;;;;;5.00;1.23;;;;;;;;;;5016626;28;20048;-59
2021/10/04 09:31:47;;;;;;;3.45;1.13;;;;;;;;;;5006737;28;20491;-61
2021/10/04 09:34:14;;;;;;;6.05;1.17;;;;;;;;;;5002231;28;20119;-59
2021/10/04 09:36:43;;;;;;;7.22;0.90;;;;;;;;;;5006952;28;20038;-61
2021/10/04 09:39:11;;;;;;;4.88;1.08;;;;;;;;;;5001857;28;20096;-59
2021/10/04 09:41:38;;;;;;;7.28;1.00;;;;;;;;;;5013849;28;20123;-61
2021/10/04 09:44:04;;;;;;;5.32;1.20;;;;;;;;;;5025596;28;20045;-62
2021/10/04 09:46:33;;;;;;;9.75;1.17;;;;;;;;;;5019888;28;20115;-59
2021/10/04 09:49:02;;;;;;;11.90;1.05;;;;;;;;;;5025462;28;20045;-61
2021/10/04 09:51:31;;;;;;;4.63;0.98;;;;;;;;;;5021714;28;20060;-61
2021/10/04 09:53:57;;;;;;;;;;;;;;;;;;5024085;28;20050;-59
2021/10/04 09:56:28;;;;;;;4.45;0.70;;;;;;;;;;5022891;28;19917;-58
2021/10/04 09:58:55;;;;;;;4.68;1.17;;;;;;;;;;5044443;28;20037;-59
2021/10/04 10:01:23;;;;;;;3.92;0.68;;;;;;;;;;5040916;28;20179;-61
2021/10/04 10:03:50;;;;;;;3.25;0.90;;;;;;;;;;5041462;28;20055;-61
2021/10/04 10:06:17;;;;;;;4.15;0.93;;;;;;;;;;5029790;28;20034;-61
2021/10/04 10:08:43;;;;;;;5.07;1.08;;;;;;;;;;5036309;28;20052;-57
2021/10/04 10:11:14;;;;;;;4.60;1.20;;;;;;;;;;5041016;28;20044;-59
2021/10/04 10:13:42;;;;;;;7.60;1.33;;;;;;;;;;5044475;28;20085;-60
2021/10/04 10:16:10;;;;;;;7.17;0.80;;;;;;;;;;5046397;28;20037;-61
2021/10/04 10:18:40;;;;;;;9.03;0.93;;;;;;;;;;5044677;28;20037;-61
2021/10/04 10:21:09;;;;;;;4.65;0.80;;;;;;;;;;5039612;28;20298;-58
2021/10/04 10:23:46;;;;;;;5.55;0.93;;;;;;;;;;5043449;28;20025;-59
2021/10/04 10:26:27;;;;;;;4.10;0.60;;;;;;;;;;5039401;28;20131;-60
2021/10/04 10:29:19;;;;;;;5.43;1.55;;;;;;;;;;5044875;28;20037;-59
2021/10/04 10:32:09;;;;;;;6.90;1.30;;;;;;;;;;5037919;28;20034;-58
2021/10/04 10:34:48;;;;;;;7.45;0.77;;;;;;;;;;5042578;28;20119;-59
2021/10/04 10:37:16;;;;;;;3.53;0.85;;;;;;;;;;5040633;28;20037;-59
2021/10/04 10:39:49;;;;;;;2.65;0.63;;;;;;;;;;5042972;28;20025;-58
2021/10/04 10:42:16;;;;;;;3.22;0.80;;;;;;;;;;5033130;28;20053;-59
2021/10/04 10:45:03;;;;;;;4.25;0.68;;;;;;;;;;5043084;28;20048;-60
2021/10/04 10:47:49;;;;;;;6.78;1.00;;;;;;;;;;5034314;28;20053;-60
2021/10/04 10:50:18;;;;;;;5.72;0.73;;;;;;;;;;5009085;28;20049;-60
2021/10/04 10:52:45;;;;;;;8.48;0.82;;;;;;;;;;5006856;28;20056;-61
2021/10/04 10:55:32;;;;;;;2.95;0.90;;;;;;;;;;5024373;28;20034;-59
2021/10/04 10:57:59;;;;;;;3.00;0.85;;;;;;;;;;5019266;28;20029;-58
2021/10/04 11:00:29;;;;;;;5.80;0.80;;;;;;;;;;5025803;28;20119;-59
2021/10/04 11:02:56;;;;;;;7.65;1.65;;;;;;;;;;5033198;28;20033;-59
2021/10/04 11:05:41;;;;;;;8.13;0.80;;;;;;;;;;5021687;28;20066;-58
2021/10/04 11:08:10;;;;;;;5.50;0.85;;;;;;;;;;5024730;28;20074;-60
2021/10/04 11:10:57;;;;;;;6.78;0.70;;;;;;;;;;5014485;28;20111;-59
2021/10/04 11:13:25;;;;;;;4.85;0.80;;;;;;;;;;5018896;28;20034;-60
2021/10/04 11:15:52;;;;;;;;;;;;;;;;;;5024644;28;20034;-60
2021/10/04 11:18:20;;;;;;;13.98;1.10;;;;;;;;;;5015596;28;19921;-60
2021/10/04 11:21:01;;;;;;;4.93;0.80;;;;;;;;;;5004143;28;20109;-61
2021/10/04 11:23:29;;;;;;;2.85;0.80;;;;;;;;;;4996615;28;20033;-60
2021/10/04 11:25:57;;;;;;;8.15;1.05;;;;;;;;;;5023016;28;20045;-60
2021/10/04 11:28:37;;;;;;;7.03;0.93;;;;;;;;;;5029769;28;20044;-60
2021/10/04 11:31:04;;;;;;;9.98;1.27;;;;;;;;;;5030108;28;20030;-57
2021/10/04 11:33:32;;;;;;;9.80;1.10;;;;;;;;;;5019013;28;20057;-58
2021/10/04 11:35:59;;;;;;;4.68;0.85;;;;;;;;;;5004828;28;20053;-60
2021/10/04 11:38:27;;;;;;;8.00;1.20;;;;;;;;;;5003447;28;20041;-59
2021/10/04 11:41:00;;;;;;;11.35;1.58;;;;;;;;;;5016516;28;20054;-58
2021/10/04 11:43:27;;;;;;;6.30;1.63;;;;;;;;;;5023119;28;20120;-59
2021/10/04 11:45:54;;;;;;;4.10;0.88;;;;;;;;;;5034959;28;20038;-60
2021/10/04 11:48:28;;;;;;;9.13;1.05;;;;;;;;;;5042834;28;20049;-60
2021/10/04 11:50:54;;;;;;;6.03;1.00;;;;;;;;;;5037852;28;20048;-58
2021/10/04 11:53:21;;;;;;;4.50;0.75;;;;;;;;;;5042651;28;20055;-60
2021/10/04 11:55:56;;;;;;;5.80;0.85;;;;;;;;;;5028310;28;20045;-60
2021/10/04 11:58:24;;;;;;;6.65;0.90;;;;;;;;;;5023397;28;20062;-58
2021/10/04 12:00:51;;;;;;;5.23;0.83;;;;;;;;;;5030791;28;20033;-59
2021/10/04 12:03:26;;;;;;;3.97;0.80;;;;;;;;;;5041277;28;20278;-58
2021/10/04 12:05:53;;;;;;;8.77;1.25;;;;;;;;;;5027386;28;20062;-59
2021/10/04 12:08:21;;;;;;;9.40;1.23;;;;;;;;;;5021542;28;20042;-59
2021/10/04 12:10:54;;;;;;;6.07;1.08;;;;;;;;;;5022867;28;20095;-58
2021/10/04 12:13:22;;;;;;;10.88;1.00;;;;;;;;;;5041944;28;20042;-59
2021/10/04 12:15:51;;;;;;;6.05;0.70;;;;;;;;;;5033589;28;20041;-59
2021/10/04 12:18:19;;;;;;;4.15;0.80;;;;;;;;;;5025755;28;20038;-58
2021/10/04 12:20:48;;;;;;;3.47;0.70;;;;;;;;;;5021737;28;20045;-58
2021/10/04 12:23:19;;;;;;;6.28;0.80;;;;;;;;;;5025916;28;20057;-58
2021/10/04 12:25:46;;;;;;;8.70;0.80;;;;;;;;;;5011922;28;20027;-59
2021/10/04 12:28:16;;;;;;;9.18;1.05;;;;;;;;;;5031981;28;20066;-60
2021/10/04 12:30:48;;;;;;;6.90;0.70;;;;;;;;;;5043408;28;20048;-58
2021/10/04 12:33:16;;;;;;;5.82;0.95;;;;;;;;;;5025224;28;20040;-57
2021/10/04 12:35:42;;;;;;;10.75;0.80;;;;;;;;;;5025524;28;20045;-60
2021/10/04 12:38:10;;;;;;;8.93;0.77;;;;;;;;;;5055557;28;20044;-59
2021/10/04 12:40:44;;;;;;;6.85;1.33;;;;;;;;;;5045762;28;20045;-60
2021/10/04 12:43:12;;;;;;;8.32;0.90;;;;;;;;;;5021890;28;20041;-60
2021/10/04 12:45:39;;;;;;;3.33;0.73;;;;;;;;;;5025837;28;20029;-59
2021/10/04 12:48:07;;;;;;;2.70;0.70;;;;;;;;;;5022216;28;20041;-60
2021/10/04 12:50:37;;;;;;;2.23;0.60;;;;;;;;;;5025365;28;20045;-60
2021/10/04 12:53:20;;;;;;;8.95;0.80;;;;;;;;;;5035075;28;20046;-61
2021/10/04 12:55:57;;;;;;;6.28;1.10;;;;;;;;;;5045161;28;20121;-61
2021/10/04 12:58:24;;;;;;;6.22;0.60;;;;;;;;;;5027197;28;20057;-61
2021/10/04 13:00:57;;;;;;;5.82;0.77;;;;;;;;;;5024804;28;20052;-60
2021/10/04 13:03:24;;;;;;;5.35;0.82;;;;;;;;;;5027474;28;20101;-59
2021/10/04 13:05:52;;;;;;;1.80;0.57;;;;;;;;;;5023463;28;20037;-58
2021/10/04 13:08:19;;;;;;;6.28;0.85;;;;;;;;;;5034819;28;20100;-58
2021/10/04 13:10:47;;;;;;;6.18;0.75;;;;;;;;;;5042637;28;20119;-59
2021/10/04 13:13:13;;;;;;;5.95;1.08;;;;;;;;;;5023127;28;20082;-60
2021/10/04 13:15:40;;;;;;;6.18;0.98;;;;;;;;;;5025755;28;20034;-60
2021/10/04 13:18:07;;;;;;;7.05;1.00;;;;;;;;;;5004226;28;20133;-59
2021/10/04 13:20:47;;;;;;;19.45;1.98;;;;;;;;;;5006199;28;20077;-57
2021/10/04 13:23:15;;;;;;;6.10;0.90;;;;;;;;;;5032802;28;20097;-58
2021/10/04 13:25:42;;;;;;;9.13;0.80;;;;;;;;;;5004279;28;20101;-58
2021/10/04 13:28:10;;;;;;;5.22;0.65;;;;;;;;;;5035765;28;20042;-58
2021/10/04 13:30:36;;;;;;;5.47;0.70;;;;;;;;;;5025834;28;20041;-58
2021/10/04 13:33:03;;;;;;;13.60;0.80;;;;;;;;;;5023982;28;20208;-60
2021/10/04 13:35:29;;;;;;;7.97;1.05;;;;;;;;;;5019814;28;20061;-61
2021/10/04 13:37:56;;;;;;;7.70;1.08;;;;;;;;;;5024932;28;20121;-59
2021/10/04 13:40:26;;;;;;;4.32;0.70;;;;;;;;;;5021566;28;20033;-59
2021/10/04 13:42:52;;;;;;;9.38;1.20;;;;;;;;;;5044314;28;20045;-61
2021/10/04 13:45:19;;;;;;;8.25;0.90;;;;;;;;;;5040787;28;20055;-60
2021/10/04 13:47:45;;;;;;;2.70;0.70;;;;;;;;;;5043714;28;20048;-62
2021/10/04 13:50:21;;;;;;;4.47;0.85;;;;;;;;;;5040022;28;20045;-62
2021/10/04 13:52:49;;;;;;;3.88;1.00;;;;;;;;;;5044568;28;20045;-59
2021/10/04 13:55:16;;;;;;;5.82;0.75;;;;;;;;;;5041741;28;20033;-61
2021/10/04 13:57:44;;;;;;;5.53;0.95;;;;;;;;;;5044367;28;20040;-61
2021/10/04 14:00:14;;;;;;;8.68;0.80;;;;;;;;;;5032391;28;20061;-61
2021/10/04 14:02:42;;;;;;;2.90;0.73;;;;;;;;;;5015045;28;20051;-61
2021/10/04 14:05:10;;;;;;;3.42;0.73;;;;;;;;;;5031471;28;20042;-61
2021/10/04 14:07:36;;;;;;;8.43;1.10;;;;;;;;;;5024606;28;20033;-60
2021/10/04 14:10:06;;;;;;;5.80;0.77;;;;;;;;;;5025250;28;20227;-61
2021/10/04 14:12:32;;;;;;;4.25;1.00;;;;;;;;;;5044878;28;20130;-61
2021/10/04 14:15:00;;;;;;;4.28;0.77;;;;;;;;;;5039912;28;20045;-62
2021/10/04 14:17:27;;;;;;;4.32;0.68;;;;;;;;;;5025756;28;20119;-61
2021/10/04 14:19:56;;;;;;;6.03;0.77;;;;;;;;;;5024312;28;20104;-61
2021/10/04 14:22:23;;;;;;;6.40;0.95;;;;;;;;;;5037650;28;20045;-63
2021/10/04 14:24:49;;;;;;;5.15;0.80;;;;;;;;;;5035953;28;20140;-62
2021/10/04 14:27:15;;;;;;;11.25;1.13;;;;;;;;;;5038878;28;20041;-62
2021/10/04 14:29:47;;;;;;;7.03;1.27;;;;;;;;;;5044720;28;20076;-61
2021/10/04 14:32:15;;;;;;;6.43;1.05;;;;;;;;;;5025901;28;20042;-63
2021/10/04 14:34:42;;;;;;;7.90;1.15;;;;;;;;;;5039766;28;20048;-61
2021/10/04 14:37:08;;;;;;;11.05;1.10;;;;;;;;;;5021581;28;20172;-61
2021/10/04 14:39:37;;;;;;;8.50;0.75;;;;;;;;;;5010521;28;20042;-62
2021/10/04 14:42:03;;;;;;;;;;;;;;;;;;5010819;28;20130;-60
2021/10/04 14:44:29;;;;;;;5.97;1.00;;;;;;;;;;5022940;28;19931;-60
2021/10/04 14:46:56;;;;;;;8.68;0.82;;;;;;;;;;5013979;28;20153;-60
2021/10/04 14:49:25;;;;;;;6.40;1.13;;;;;;;;;;5018998;28;20052;-60
2021/10/04 14:51:51;;;;;;;5.97;1.15;;;;;;;;;;5025122;28;20045;-61